sensor_id;sensor_type;location;lat;lon;timestamp;temperature;humidity
30150;DHT22;16962;48.646;9.026;2024-02-14T00:02:48;3.30;99.90
30150;DHT22;16962;48.646;9.026;2024-02-14T00:05:39;3.30;99.90
30150;DHT22;16962;48.646;9.026;2024-02-14T00:08:27;3.20;99.90
30150;DHT22;16962;48.646;9.026;2024-02-14T00:11:14;3.20;99.90
30150;DHT22;16962;48.646;9.026;2024-02-14T00:14:02;3.10;99.90
30150;DHT22;16962;48.646;9.026;2024-02-14T00:16:49;3.10;99.90
30150;DHT22;16962;48.646;9.026;2024-02-14T00:19:38;3.10;99.90
30150;DHT22;16962;48.646;9.026;2024-02-14T00:22:25;3.20;99.90
30150;DHT22;16962;48.646;9.026;2024-02-14T00:25:15;3.20;99.90
30150;DHT22;16962;48.646;9.026;2024-02-14T00:28:06;3.30;99.90
30150;DHT22;16962;48.646;9.026;2024-02-14T00:30:54;3.30;99.90
30150;DHT22;16962;48.646;9.026;2024-02-14T00:33:42;3.40;99.90
30150;DHT22;16962;48.646;9.026;2024-02-14T00:36:29;3.50;99.90
30150;DHT22;16962;48.646;9.026;2024-02-14T00:39:17;3.60;99.90
30150;DHT22;16962;48.646;9.026;2024-02-14T00:42:05;3.70;99.90
30150;DHT22;16962;48.646;9.026;2024-02-14T00:44:52;3.70;99.90
30150;DHT22;16962;48.646;9.026;2024-02-14T00:47:40;3.80;99.90
30150;DHT22;16962;48.646;9.026;2024-02-14T00:50:28;3.90;99.90
30150;DHT22;16962;48.646;9.026;2024-02-14T00:53:17;4.00;99.90
30150;DHT22;16962;48.646;9.026;2024-02-14T00:56:05;4.10;99.90
30150;DHT22;16962;48.646;9.026;2024-02-14T00:58:53;4.20;99.90
30150;DHT22;16962;48.646;9.026;2024-02-14T01:01:42;4.20;99.90
30150;DHT22;16962;48.646;9.026;2024-02-14T01:04:29;4.10;99.90
30150;DHT22;16962;48.646;9.026;2024-02-14T01:07:17;4.10;99.90
30150;DHT22;16962;48.646;9.026;2024-02-14T01:10:05;4.00;99.90
30150;DHT22;16962;48.646;9.026;2024-02-14T01:12:54;3.90;99.90
30150;DHT22;16962;48.646;9.026;2024-02-14T01:15:42;3.90;99.90
30150;DHT22;16962;48.646;9.026;2024-02-14T01:18:30;3.80;99.90
30150;DHT22;16962;48.646;9.026;2024-02-14T01:21:19;3.80;1.00
30150;DHT22;16962;48.646;9.026;2024-02-14T01:24:07;3.70;1.00
30150;DHT22;16962;48.646;9.026;2024-02-14T01:26:56;3.80;1.00
30150;DHT22;16962;48.646;9.026;2024-02-14T01:29:43;3.80;1.00
30150;DHT22;16962;48.646;9.026;2024-02-14T01:32:31;3.80;2.60
30150;DHT22;16962;48.646;9.026;2024-02-14T01:35:19;3.70;69.50
30150;DHT22;16962;48.646;9.026;2024-02-14T01:38:06;3.70;99.90
30150;DHT22;16962;48.646;9.026;2024-02-14T01:40:54;3.70;99.90
30150;DHT22;16962;48.646;9.026;2024-02-14T01:43:41;3.60;99.90
30150;DHT22;16962;48.646;9.026;2024-02-14T01:46:29;3.60;99.90
30150;DHT22;16962;48.646;9.026;2024-02-14T01:49:18;3.60;99.90
30150;DHT22;16962;48.646;9.026;2024-02-14T01:52:07;3.60;99.90
30150;DHT22;16962;48.646;9.026;2024-02-14T01:54:54;3.50;99.90
30150;DHT22;16962;48.646;9.026;2024-02-14T01:57:49;3.50;1.00
30150;DHT22;16962;48.646;9.026;2024-02-14T02:00:38;3.60;1.00
30150;DHT22;16962;48.646;9.026;2024-02-14T02:03:26;3.50;1.00
30150;DHT22;16962;48.646;9.026;2024-02-14T02:06:14;3.50;1.00
30150;DHT22;16962;48.646;9.026;2024-02-14T02:09:03;3.50;1.00
30150;DHT22;16962;48.646;9.026;2024-02-14T02:11:51;3.50;1.00
30150;DHT22;16962;48.646;9.026;2024-02-14T02:14:45;3.40;1.00
30150;DHT22;16962;48.646;9.026;2024-02-14T02:17:32;3.40;14.10
30150;DHT22;16962;48.646;9.026;2024-02-14T02:20:23;3.40;99.90
30150;DHT22;16962;48.646;9.026;2024-02-14T02:23:11;3.30;99.90
30150;DHT22;16962;48.646;9.026;2024-02-14T02:26:02;3.40;1.00
30150;DHT22;16962;48.646;9.026;2024-02-14T02:28:49;3.30;1.00
30150;DHT22;16962;48.646;9.026;2024-02-14T02:31:37;3.40;1.00
30150;DHT22;16962;48.646;9.026;2024-02-14T02:34:26;3.40;1.00
30150;DHT22;16962;48.646;9.026;2024-02-14T02:37:14;3.50;99.90
30150;DHT22;16962;48.646;9.026;2024-02-14T02:40:05;3.60;99.90
30150;DHT22;16962;48.646;9.026;2024-02-14T02:42:54;3.60;99.90
30150;DHT22;16962;48.646;9.026;2024-02-14T02:45:42;3.60;99.90
30150;DHT22;16962;48.646;9.026;2024-02-14T02:48:30;3.60;99.90
30150;DHT22;16962;48.646;9.026;2024-02-14T02:51:18;3.50;99.90
30150;DHT22;16962;48.646;9.026;2024-02-14T02:54:06;3.50;85.40
30150;DHT22;16962;48.646;9.026;2024-02-14T02:56:55;3.50;90.00
30150;DHT22;16962;48.646;9.026;2024-02-14T02:59:43;3.40;94.30
30150;DHT22;16962;48.646;9.026;2024-02-14T03:02:33;3.50;99.90
30150;DHT22;16962;48.646;9.026;2024-02-14T03:05:23;3.50;99.90
30150;DHT22;16962;48.646;9.026;2024-02-14T03:08:11;3.60;99.90
30150;DHT22;16962;48.646;9.026;2024-02-14T03:11:07;3.60;99.90
30150;DHT22;16962;48.646;9.026;2024-02-14T03:13:54;3.60;99.90
30150;DHT22;16962;48.646;9.026;2024-02-14T03:16:42;3.60;99.90
30150;DHT22;16962;48.646;9.026;2024-02-14T03:19:30;3.80;99.90
30150;DHT22;16962;48.646;9.026;2024-02-14T03:22:18;4.00;14.80
30150;DHT22;16962;48.646;9.026;2024-02-14T03:25:06;4.10;1.00
30150;DHT22;16962;48.646;9.026;2024-02-14T03:27:55;4.20;1.00
30150;DHT22;16962;48.646;9.026;2024-02-14T03:30:45;4.10;99.90
30150;DHT22;16962;48.646;9.026;2024-02-14T03:33:32;4.20;99.90
30150;DHT22;16962;48.646;9.026;2024-02-14T03:36:20;4.20;99.90
30150;DHT22;16962;48.646;9.026;2024-02-14T03:39:10;4.20;99.90
30150;DHT22;16962;48.646;9.026;2024-02-14T03:41:59;4.20;99.90
30150;DHT22;16962;48.646;9.026;2024-02-14T03:44:50;4.10;21.40
30150;DHT22;16962;48.646;9.026;2024-02-14T03:47:38;4.10;1.00
30150;DHT22;16962;48.646;9.026;2024-02-14T03:50:29;4.00;1.00
30150;DHT22;16962;48.646;9.026;2024-02-14T03:53:16;4.00;1.00
30150;DHT22;16962;48.646;9.026;2024-02-14T03:56:05;4.00;1.00
30150;DHT22;16962;48.646;9.026;2024-02-14T03:58:54;3.90;1.00
30150;DHT22;16962;48.646;9.026;2024-02-14T04:01:45;3.90;1.00
30150;DHT22;16962;48.646;9.026;2024-02-14T04:04:32;3.80;1.00
30150;DHT22;16962;48.646;9.026;2024-02-14T04:07:21;3.80;1.00
30150;DHT22;16962;48.646;9.026;2024-02-14T04:10:10;3.80;1.00
30150;DHT22;16962;48.646;9.026;2024-02-14T04:12:58;3.70;1.00
30150;DHT22;16962;48.646;9.026;2024-02-14T04:15:45;3.60;1.00
30150;DHT22;16962;48.646;9.026;2024-02-14T04:18:33;3.60;1.00
30150;DHT22;16962;48.646;9.026;2024-02-14T04:21:21;3.70;1.00
30150;DHT22;16962;48.646;9.026;2024-02-14T04:24:09;3.60;1.00
30150;DHT22;16962;48.646;9.026;2024-02-14T04:26:56;3.70;1.00
30150;DHT22;16962;48.646;9.026;2024-02-14T04:29:47;3.50;1.00
30150;DHT22;16962;48.646;9.026;2024-02-14T04:32:35;3.50;1.00
30150;DHT22;16962;48.646;9.026;2024-02-14T04:35:23;3.50;1.00
30150;DHT22;16962;48.646;9.026;2024-02-14T04:38:11;3.60;1.00
30150;DHT22;16962;48.646;9.026;2024-02-14T04:40:58;3.70;1.00
30150;DHT22;16962;48.646;9.026;2024-02-14T04:43:46;3.70;1.00
30150;DHT22;16962;48.646;9.026;2024-02-14T04:46:35;3.70;1.00
30150;DHT22;16962;48.646;9.026;2024-02-14T04:49:23;3.70;1.00
30150;DHT22;16962;48.646;9.026;2024-02-14T04:52:11;3.70;1.00
30150;DHT22;16962;48.646;9.026;2024-02-14T04:54:59;3.70;1.00
30150;DHT22;16962;48.646;9.026;2024-02-14T04:57:48;3.80;1.00
30150;DHT22;16962;48.646;9.026;2024-02-14T05:00:35;3.90;1.00
30150;DHT22;16962;48.646;9.026;2024-02-14T05:03:24;3.90;99.90
30150;DHT22;16962;48.646;9.026;2024-02-14T05:06:13;4.00;99.90
30150;DHT22;16962;48.646;9.026;2024-02-14T05:09:01;4.00;99.90
30150;DHT22;16962;48.646;9.026;2024-02-14T05:11:48;4.10;99.90
30150;DHT22;16962;48.646;9.026;2024-02-14T05:14:38;4.20;99.90
30150;DHT22;16962;48.646;9.026;2024-02-14T05:17:25;4.30;99.90
30150;DHT22;16962;48.646;9.026;2024-02-14T05:20:13;4.40;99.90
30150;DHT22;16962;48.646;9.026;2024-02-14T05:23:01;4.50;99.90
30150;DHT22;16962;48.646;9.026;2024-02-14T05:25:48;4.60;99.90
30150;DHT22;16962;48.646;9.026;2024-02-14T05:28:37;4.60;99.90
30150;DHT22;16962;48.646;9.026;2024-02-14T05:31:25;4.60;99.90
30150;DHT22;16962;48.646;9.026;2024-02-14T05:34:29;4.60;99.90
30150;DHT22;16962;48.646;9.026;2024-02-14T05:37:18;4.60;99.90
30150;DHT22;16962;48.646;9.026;2024-02-14T05:40:07;4.70;99.90
30150;DHT22;16962;48.646;9.026;2024-02-14T05:42:54;4.70;99.90
30150;DHT22;16962;48.646;9.026;2024-02-14T05:45:44;4.70;99.90
30150;DHT22;16962;48.646;9.026;2024-02-14T05:48:32;4.60;99.90
30150;DHT22;16962;48.646;9.026;2024-02-14T05:51:20;4.70;99.90
30150;DHT22;16962;48.646;9.026;2024-02-14T05:54:07;4.60;99.10
30150;DHT22;16962;48.646;9.026;2024-02-14T05:56:55;4.60;89.70
30150;DHT22;16962;48.646;9.026;2024-02-14T05:59:44;4.60;74.90
30150;DHT22;16962;48.646;9.026;2024-02-14T06:02:34;4.60;62.80
30150;DHT22;16962;48.646;9.026;2024-02-14T06:05:22;4.70;49.50
30150;DHT22;16962;48.646;9.026;2024-02-14T06:08:11;4.70;27.20
30150;DHT22;16962;48.646;9.026;2024-02-14T06:10:58;4.70;13.80
30150;DHT22;16962;48.646;9.026;2024-02-14T06:13:49;4.70;2.50
30150;DHT22;16962;48.646;9.026;2024-02-14T06:16:37;4.80;1.00
30150;DHT22;16962;48.646;9.026;2024-02-14T06:19:24;5.00;1.00
30150;DHT22;16962;48.646;9.026;2024-02-14T06:22:13;5.00;1.00
30150;DHT22;16962;48.646;9.026;2024-02-14T06:25:00;5.10;1.00
30150;DHT22;16962;48.646;9.026;2024-02-14T06:27:48;5.00;1.00
30150;DHT22;16962;48.646;9.026;2024-02-14T06:30:36;5.00;1.00
30150;DHT22;16962;48.646;9.026;2024-02-14T06:33:23;5.00;1.00
30150;DHT22;16962;48.646;9.026;2024-02-14T06:36:11;5.10;1.00
30150;DHT22;16962;48.646;9.026;2024-02-14T06:38:58;5.10;1.00
30150;DHT22;16962;48.646;9.026;2024-02-14T06:41:46;5.10;1.00
30150;DHT22;16962;48.646;9.026;2024-02-14T06:44:35;5.00;1.00
30150;DHT22;16962;48.646;9.026;2024-02-14T06:47:23;4.90;1.00
30150;DHT22;16962;48.646;9.026;2024-02-14T06:50:10;4.90;1.00
30150;DHT22;16962;48.646;9.026;2024-02-14T06:52:58;4.90;1.00
30150;DHT22;16962;48.646;9.026;2024-02-14T06:55:47;4.90;1.00
30150;DHT22;16962;48.646;9.026;2024-02-14T06:58:34;4.90;1.00
30150;DHT22;16962;48.646;9.026;2024-02-14T07:01:21;4.80;1.00
30150;DHT22;16962;48.646;9.026;2024-02-14T07:04:10;4.80;1.00
30150;DHT22;16962;48.646;9.026;2024-02-14T07:06:58;4.80;1.00
30150;DHT22;16962;48.646;9.026;2024-02-14T07:09:46;4.90;1.00
30150;DHT22;16962;48.646;9.026;2024-02-14T07:12:34;5.00;1.00
30150;DHT22;16962;48.646;9.026;2024-02-14T07:15:23;5.10;1.00
30150;DHT22;16962;48.646;9.026;2024-02-14T07:18:15;5.10;1.00
30150;DHT22;16962;48.646;9.026;2024-02-14T07:21:04;5.10;1.00
30150;DHT22;16962;48.646;9.026;2024-02-14T07:23:53;5.20;1.00
30150;DHT22;16962;48.646;9.026;2024-02-14T07:26:42;5.40;1.00
30150;DHT22;16962;48.646;9.026;2024-02-14T07:29:31;5.50;1.00
30150;DHT22;16962;48.646;9.026;2024-02-14T07:32:20;5.50;1.00
30150;DHT22;16962;48.646;9.026;2024-02-14T07:35:09;5.60;1.00
30150;DHT22;16962;48.646;9.026;2024-02-14T07:37:57;5.70;1.00
30150;DHT22;16962;48.646;9.026;2024-02-14T07:40:45;5.80;1.00
30150;DHT22;16962;48.646;9.026;2024-02-14T07:43:33;5.90;1.00
30150;DHT22;16962;48.646;9.026;2024-02-14T07:46:20;6.00;1.00
30150;DHT22;16962;48.646;9.026;2024-02-14T07:49:09;6.10;1.00
30150;DHT22;16962;48.646;9.026;2024-02-14T07:51:57;6.20;1.00
30150;DHT22;16962;48.646;9.026;2024-02-14T07:54:45;6.30;1.00
30150;DHT22;16962;48.646;9.026;2024-02-14T07:57:32;6.30;1.00
30150;DHT22;16962;48.646;9.026;2024-02-14T08:00:20;6.40;1.00
30150;DHT22;16962;48.646;9.026;2024-02-14T08:03:11;6.50;1.00
30150;DHT22;16962;48.646;9.026;2024-02-14T08:05:59;6.50;1.00
30150;DHT22;16962;48.646;9.026;2024-02-14T08:08:48;6.60;1.00
30150;DHT22;16962;48.646;9.026;2024-02-14T08:11:44;6.60;1.00
30150;DHT22;16962;48.646;9.026;2024-02-14T08:14:32;6.70;1.00
30150;DHT22;16962;48.646;9.026;2024-02-14T08:17:20;6.70;1.00
30150;DHT22;16962;48.646;9.026;2024-02-14T08:20:33;6.80;1.00
30150;DHT22;16962;48.646;9.026;2024-02-14T08:23:21;7.00;1.00
30150;DHT22;16962;48.646;9.026;2024-02-14T08:26:09;7.10;1.00
30150;DHT22;16962;48.646;9.026;2024-02-14T08:28:57;7.20;1.00
30150;DHT22;16962;48.646;9.026;2024-02-14T08:31:48;7.40;1.00
30150;DHT22;16962;48.646;9.026;2024-02-14T08:34:35;7.50;99.90
30150;DHT22;16962;48.646;9.026;2024-02-14T08:37:23;7.60;99.90
30150;DHT22;16962;48.646;9.026;2024-02-14T08:40:12;7.70;99.90
30150;DHT22;16962;48.646;9.026;2024-02-14T08:43:00;7.80;99.90
30150;DHT22;16962;48.646;9.026;2024-02-14T08:45:47;7.80;99.90
30150;DHT22;16962;48.646;9.026;2024-02-14T08:48:35;7.70;99.90
30150;DHT22;16962;48.646;9.026;2024-02-14T08:51:23;7.70;99.90
30150;DHT22;16962;48.646;9.026;2024-02-14T08:54:11;7.70;99.90
30150;DHT22;16962;48.646;9.026;2024-02-14T08:56:59;7.80;99.90
30150;DHT22;16962;48.646;9.026;2024-02-14T08:59:47;7.80;99.90
30150;DHT22;16962;48.646;9.026;2024-02-14T09:02:35;7.80;99.90
30150;DHT22;16962;48.646;9.026;2024-02-14T09:05:24;7.80;99.90
30150;DHT22;16962;48.646;9.026;2024-02-14T09:08:12;7.90;99.90
30150;DHT22;16962;48.646;9.026;2024-02-14T09:11:00;7.90;99.90
30150;DHT22;16962;48.646;9.026;2024-02-14T09:13:47;8.10;99.90
30150;DHT22;16962;48.646;9.026;2024-02-14T09:16:36;8.20;99.90
30150;DHT22;16962;48.646;9.026;2024-02-14T09:19:25;8.30;99.90
30150;DHT22;16962;48.646;9.026;2024-02-14T09:22:15;8.40;99.90
30150;DHT22;16962;48.646;9.026;2024-02-14T09:25:08;8.60;99.90
30150;DHT22;16962;48.646;9.026;2024-02-14T09:27:59;8.60;99.90
30150;DHT22;16962;48.646;9.026;2024-02-14T09:30:46;8.70;99.90
30150;DHT22;16962;48.646;9.026;2024-02-14T09:33:35;8.60;99.90
30150;DHT22;16962;48.646;9.026;2024-02-14T09:36:24;8.80;99.90
30150;DHT22;16962;48.646;9.026;2024-02-14T09:39:12;9.00;99.90
30150;DHT22;16962;48.646;9.026;2024-02-14T09:42:13;9.30;99.90
30150;DHT22;16962;48.646;9.026;2024-02-14T09:45:02;9.30;99.90
30150;DHT22;16962;48.646;9.026;2024-02-14T09:47:51;9.60;99.90
30150;DHT22;16962;48.646;9.026;2024-02-14T09:50:39;9.70;99.90
30150;DHT22;16962;48.646;9.026;2024-02-14T09:53:28;9.70;99.90
30150;DHT22;16962;48.646;9.026;2024-02-14T09:56:16;9.80;99.90
30150;DHT22;16962;48.646;9.026;2024-02-14T09:59:06;10.00;99.90
30150;DHT22;16962;48.646;9.026;2024-02-14T10:01:57;10.10;99.90
30150;DHT22;16962;48.646;9.026;2024-02-14T10:04:44;10.20;99.90
30150;DHT22;16962;48.646;9.026;2024-02-14T10:07:42;10.20;99.90
30150;DHT22;16962;48.646;9.026;2024-02-14T10:10:37;10.00;99.90
30150;DHT22;16962;48.646;9.026;2024-02-14T10:13:28;10.10;99.90
30150;DHT22;16962;48.646;9.026;2024-02-14T10:16:19;10.10;99.90
30150;DHT22;16962;48.646;9.026;2024-02-14T10:19:18;10.70;99.90
30150;DHT22;16962;48.646;9.026;2024-02-14T10:22:06;11.20;99.90
30150;DHT22;16962;48.646;9.026;2024-02-14T10:24:55;11.70;99.90
30150;DHT22;16962;48.646;9.026;2024-02-14T10:27:44;12.00;99.90
30150;DHT22;16962;48.646;9.026;2024-02-14T10:30:36;12.40;99.90
30150;DHT22;16962;48.646;9.026;2024-02-14T10:33:30;13.10;99.90
30150;DHT22;16962;48.646;9.026;2024-02-14T10:36:19;13.50;99.90
30150;DHT22;16962;48.646;9.026;2024-02-14T10:39:07;12.80;99.90
30150;DHT22;16962;48.646;9.026;2024-02-14T10:41:57;12.40;99.90
30150;DHT22;16962;48.646;9.026;2024-02-14T10:44:47;12.20;99.90
30150;DHT22;16962;48.646;9.026;2024-02-14T10:47:42;12.10;99.90
30150;DHT22;16962;48.646;9.026;2024-02-14T10:50:33;12.50;99.90
30150;DHT22;16962;48.646;9.026;2024-02-14T10:53:23;12.70;99.90
30150;DHT22;16962;48.646;9.026;2024-02-14T10:56:19;12.50;99.90
30150;DHT22;16962;48.646;9.026;2024-02-14T10:59:10;12.20;99.90
30150;DHT22;16962;48.646;9.026;2024-02-14T11:02:00;12.20;99.90
30150;DHT22;16962;48.646;9.026;2024-02-14T11:04:50;12.60;99.90
30150;DHT22;16962;48.646;9.026;2024-02-14T11:07:48;12.80;99.90
30150;DHT22;16962;48.646;9.026;2024-02-14T11:10:42;12.30;99.90
30150;DHT22;16962;48.646;9.026;2024-02-14T11:13:31;12.10;99.90
30150;DHT22;16962;48.646;9.026;2024-02-14T11:16:26;12.00;99.90
30150;DHT22;16962;48.646;9.026;2024-02-14T11:19:17;12.50;99.90
30150;DHT22;16962;48.646;9.026;2024-02-14T11:25:22;12.60;99.90
30150;DHT22;16962;48.646;9.026;2024-02-14T11:28:24;12.10;99.90
30150;DHT22;16962;48.646;9.026;2024-02-14T11:31:17;12.20;99.90
30150;DHT22;16962;48.646;9.026;2024-02-14T11:34:05;12.60;99.90
30150;DHT22;16962;48.646;9.026;2024-02-14T11:36:53;12.50;99.90
30150;DHT22;16962;48.646;9.026;2024-02-14T11:39:45;12.40;99.90
30150;DHT22;16962;48.646;9.026;2024-02-14T11:42:34;12.30;99.90
30150;DHT22;16962;48.646;9.026;2024-02-14T11:45:22;11.90;99.90
30150;DHT22;16962;48.646;9.026;2024-02-14T11:48:11;11.90;99.90
30150;DHT22;16962;48.646;9.026;2024-02-14T11:50:59;11.90;99.90
30150;DHT22;16962;48.646;9.026;2024-02-14T11:53:46;11.80;99.90
30150;DHT22;16962;48.646;9.026;2024-02-14T11:56:38;11.90;99.90
30150;DHT22;16962;48.646;9.026;2024-02-14T11:59:26;13.00;99.90
30150;DHT22;16962;48.646;9.026;2024-02-14T12:02:14;13.70;99.90
30150;DHT22;16962;48.646;9.026;2024-02-14T12:05:04;14.80;99.90
30150;DHT22;16962;48.646;9.026;2024-02-14T12:07:52;15.70;99.90
30150;DHT22;16962;48.646;9.026;2024-02-14T12:10:42;16.90;99.90
30150;DHT22;16962;48.646;9.026;2024-02-14T12:13:30;16.40;99.90
30150;DHT22;16962;48.646;9.026;2024-02-14T12:16:23;16.60;99.90
30150;DHT22;16962;48.646;9.026;2024-02-14T12:19:15;17.30;99.90
30150;DHT22;16962;48.646;9.026;2024-02-14T12:22:11;16.90;99.90
30150;DHT22;16962;48.646;9.026;2024-02-14T12:25:08;15.40;99.90
30150;DHT22;16962;48.646;9.026;2024-02-14T12:28:01;14.30;99.90
30150;DHT22;16962;48.646;9.026;2024-02-14T12:30:51;13.60;99.90
30150;DHT22;16962;48.646;9.026;2024-02-14T12:33:44;13.40;99.90
30150;DHT22;16962;48.646;9.026;2024-02-14T12:36:34;13.00;99.90
30150;DHT22;16962;48.646;9.026;2024-02-14T12:39:26;13.10;99.90
30150;DHT22;16962;48.646;9.026;2024-02-14T12:42:15;13.10;99.90
30150;DHT22;16962;48.646;9.026;2024-02-14T12:45:03;12.80;99.90
30150;DHT22;16962;48.646;9.026;2024-02-14T12:47:51;12.40;99.90
30150;DHT22;16962;48.646;9.026;2024-02-14T12:50:40;12.20;99.90
30150;DHT22;16962;48.646;9.026;2024-02-14T12:53:35;12.10;99.90
30150;DHT22;16962;48.646;9.026;2024-02-14T12:56:22;12.10;99.90
30150;DHT22;16962;48.646;9.026;2024-02-14T12:59:17;12.20;99.90
30150;DHT22;16962;48.646;9.026;2024-02-14T13:02:05;12.40;99.90
30150;DHT22;16962;48.646;9.026;2024-02-14T13:04:54;12.50;99.90
30150;DHT22;16962;48.646;9.026;2024-02-14T13:07:42;12.60;99.90
30150;DHT22;16962;48.646;9.026;2024-02-14T13:10:29;12.80;99.90
30150;DHT22;16962;48.646;9.026;2024-02-14T13:13:18;13.00;99.90
30150;DHT22;16962;48.646;9.026;2024-02-14T13:16:08;12.80;99.90
30150;DHT22;16962;48.646;9.026;2024-02-14T13:18:55;12.70;99.90
30150;DHT22;16962;48.646;9.026;2024-02-14T13:21:44;12.70;99.90
30150;DHT22;16962;48.646;9.026;2024-02-14T13:24:33;12.80;99.90
30150;DHT22;16962;48.646;9.026;2024-02-14T13:27:21;13.00;99.90
30150;DHT22;16962;48.646;9.026;2024-02-14T13:30:11;13.10;99.90
30150;DHT22;16962;48.646;9.026;2024-02-14T13:32:58;13.20;99.90
30150;DHT22;16962;48.646;9.026;2024-02-14T13:35:46;13.10;99.90
30150;DHT22;16962;48.646;9.026;2024-02-14T13:38:34;12.90;99.90
30150;DHT22;16962;48.646;9.026;2024-02-14T13:41:22;12.90;99.90
30150;DHT22;16962;48.646;9.026;2024-02-14T13:44:10;12.80;99.90
30150;DHT22;16962;48.646;9.026;2024-02-14T13:46:57;12.70;99.90
30150;DHT22;16962;48.646;9.026;2024-02-14T13:49:46;12.60;99.90
30150;DHT22;16962;48.646;9.026;2024-02-14T13:52:33;12.50;99.90
30150;DHT22;16962;48.646;9.026;2024-02-14T13:55:22;12.40;99.90
30150;DHT22;16962;48.646;9.026;2024-02-14T13:58:14;12.40;99.90
30150;DHT22;16962;48.646;9.026;2024-02-14T14:01:07;12.30;99.90
30150;DHT22;16962;48.646;9.026;2024-02-14T14:03:56;12.30;99.90
30150;DHT22;16962;48.646;9.026;2024-02-14T14:06:45;12.20;99.90
30150;DHT22;16962;48.646;9.026;2024-02-14T14:09:36;12.20;99.90
30150;DHT22;16962;48.646;9.026;2024-02-14T14:12:24;12.20;99.90
30150;DHT22;16962;48.646;9.026;2024-02-14T14:15:12;12.20;99.90
30150;DHT22;16962;48.646;9.026;2024-02-14T14:18:02;12.20;99.90
30150;DHT22;16962;48.646;9.026;2024-02-14T14:20:54;12.20;99.90
30150;DHT22;16962;48.646;9.026;2024-02-14T14:23:43;12.20;99.90
30150;DHT22;16962;48.646;9.026;2024-02-14T14:26:31;12.20;99.90
30150;DHT22;16962;48.646;9.026;2024-02-14T14:29:18;12.20;99.90
30150;DHT22;16962;48.646;9.026;2024-02-14T14:32:07;12.20;99.90
30150;DHT22;16962;48.646;9.026;2024-02-14T14:34:55;12.30;99.90
30150;DHT22;16962;48.646;9.026;2024-02-14T14:37:43;12.40;99.90
30150;DHT22;16962;48.646;9.026;2024-02-14T14:40:32;12.40;99.90
30150;DHT22;16962;48.646;9.026;2024-02-14T14:43:20;12.50;99.90
30150;DHT22;16962;48.646;9.026;2024-02-14T14:46:08;12.50;99.90
30150;DHT22;16962;48.646;9.026;2024-02-14T14:48:56;12.50;99.90
30150;DHT22;16962;48.646;9.026;2024-02-14T14:51:44;12.60;99.90
30150;DHT22;16962;48.646;9.026;2024-02-14T14:54:32;12.70;99.90
30150;DHT22;16962;48.646;9.026;2024-02-14T14:57:20;12.70;99.90
30150;DHT22;16962;48.646;9.026;2024-02-14T15:00:11;12.50;99.90
30150;DHT22;16962;48.646;9.026;2024-02-14T15:03:00;12.50;99.90
30150;DHT22;16962;48.646;9.026;2024-02-14T15:05:48;12.50;99.90
30150;DHT22;16962;48.646;9.026;2024-02-14T15:08:37;12.50;99.90
30150;DHT22;16962;48.646;9.026;2024-02-14T15:11:26;12.50;99.90
30150;DHT22;16962;48.646;9.026;2024-02-14T15:14:14;12.80;99.90
30150;DHT22;16962;48.646;9.026;2024-02-14T15:17:05;13.30;99.90
30150;DHT22;16962;48.646;9.026;2024-02-14T15:19:52;13.30;99.90
30150;DHT22;16962;48.646;9.026;2024-02-14T15:22:40;13.10;99.90
30150;DHT22;16962;48.646;9.026;2024-02-14T15:25:27;12.80;99.90
30150;DHT22;16962;48.646;9.026;2024-02-14T15:28:15;12.50;99.90
30150;DHT22;16962;48.646;9.026;2024-02-14T15:31:14;12.40;99.90
30150;DHT22;16962;48.646;9.026;2024-02-14T15:34:27;12.30;99.90
30150;DHT22;16962;48.646;9.026;2024-02-14T15:37:17;12.20;99.90
30150;DHT22;16962;48.646;9.026;2024-02-14T15:40:05;12.00;99.90
30150;DHT22;16962;48.646;9.026;2024-02-14T15:42:56;12.00;99.90
30150;DHT22;16962;48.646;9.026;2024-02-14T15:45:44;11.90;99.90
30150;DHT22;16962;48.646;9.026;2024-02-14T15:48:32;11.90;99.90
30150;DHT22;16962;48.646;9.026;2024-02-14T15:51:20;11.80;99.90
30150;DHT22;16962;48.646;9.026;2024-02-14T15:54:11;11.90;99.90
30150;DHT22;16962;48.646;9.026;2024-02-14T15:56:59;11.80;99.90
30150;DHT22;16962;48.646;9.026;2024-02-14T15:59:50;11.80;99.90
30150;DHT22;16962;48.646;9.026;2024-02-14T16:02:38;11.70;99.90
30150;DHT22;16962;48.646;9.026;2024-02-14T16:05:32;11.70;99.90
30150;DHT22;16962;48.646;9.026;2024-02-14T16:08:20;11.70;99.90
30150;DHT22;16962;48.646;9.026;2024-02-14T16:11:08;11.60;99.90
30150;DHT22;16962;48.646;9.026;2024-02-14T16:13:55;11.60;99.90
30150;DHT22;16962;48.646;9.026;2024-02-14T16:16:43;11.60;99.90
30150;DHT22;16962;48.646;9.026;2024-02-14T16:19:36;11.60;99.90
30150;DHT22;16962;48.646;9.026;2024-02-14T16:22:24;11.60;99.90
30150;DHT22;16962;48.646;9.026;2024-02-14T16:25:12;11.50;99.90
30150;DHT22;16962;48.646;9.026;2024-02-14T16:28:00;11.50;99.90
30150;DHT22;16962;48.646;9.026;2024-02-14T16:30:47;11.50;99.90
30150;DHT22;16962;48.646;9.026;2024-02-14T16:33:35;11.40;99.90
30150;DHT22;16962;48.646;9.026;2024-02-14T16:36:23;11.40;99.90
30150;DHT22;16962;48.646;9.026;2024-02-14T16:39:13;11.40;99.90
30150;DHT22;16962;48.646;9.026;2024-02-14T16:42:17;11.40;99.90
30150;DHT22;16962;48.646;9.026;2024-02-14T16:45:06;11.40;99.90
30150;DHT22;16962;48.646;9.026;2024-02-14T16:47:54;11.30;99.90
30150;DHT22;16962;48.646;9.026;2024-02-14T16:50:44;11.30;1.00
30150;DHT22;16962;48.646;9.026;2024-02-14T16:53:32;11.30;1.00
30150;DHT22;16962;48.646;9.026;2024-02-14T16:56:20;11.30;1.00
30150;DHT22;16962;48.646;9.026;2024-02-14T16:59:08;11.20;1.00
30150;DHT22;16962;48.646;9.026;2024-02-14T17:01:55;11.30;1.00
30150;DHT22;16962;48.646;9.026;2024-02-14T17:04:43;11.30;1.00
30150;DHT22;16962;48.646;9.026;2024-02-14T17:07:32;11.30;1.00
30150;DHT22;16962;48.646;9.026;2024-02-14T17:10:20;11.30;1.00
30150;DHT22;16962;48.646;9.026;2024-02-14T17:13:08;11.30;1.00
30150;DHT22;16962;48.646;9.026;2024-02-14T17:15:57;11.30;1.00
30150;DHT22;16962;48.646;9.026;2024-02-14T17:18:46;11.30;1.00
30150;DHT22;16962;48.646;9.026;2024-02-14T17:21:34;11.30;1.00
30150;DHT22;16962;48.646;9.026;2024-02-14T17:24:23;11.30;1.00
30150;DHT22;16962;48.646;9.026;2024-02-14T17:27:11;11.20;1.00
30150;DHT22;16962;48.646;9.026;2024-02-14T17:29:59;11.30;1.00
30150;DHT22;16962;48.646;9.026;2024-02-14T17:32:47;11.30;1.00
30150;DHT22;16962;48.646;9.026;2024-02-14T17:35:36;11.30;1.00
30150;DHT22;16962;48.646;9.026;2024-02-14T17:38:25;11.30;1.00
30150;DHT22;16962;48.646;9.026;2024-02-14T17:41:12;11.30;1.00
30150;DHT22;16962;48.646;9.026;2024-02-14T17:44:00;11.30;1.00
30150;DHT22;16962;48.646;9.026;2024-02-14T17:46:51;11.30;1.00
30150;DHT22;16962;48.646;9.026;2024-02-14T17:49:38;11.30;1.00
30150;DHT22;16962;48.646;9.026;2024-02-14T17:52:27;11.20;1.00
30150;DHT22;16962;48.646;9.026;2024-02-14T17:55:15;11.10;1.00
30150;DHT22;16962;48.646;9.026;2024-02-14T17:58:05;11.10;1.00
30150;DHT22;16962;48.646;9.026;2024-02-14T18:00:53;11.10;1.00
30150;DHT22;16962;48.646;9.026;2024-02-14T18:03:42;11.00;1.00
30150;DHT22;16962;48.646;9.026;2024-02-14T18:06:33;11.00;1.00
30150;DHT22;16962;48.646;9.026;2024-02-14T18:09:21;10.90;1.00